• Join FlightAware (Why Join?)
  • Login
  • US Flag 
01:10PM EDT


 

Airport Tracker/Info


-or-


 

Live Flight TrackerFlight Track Log ✈ SKW7430 ✈ 03-May-2013 ✈ KSLC - KPIH

Flight Track Log - Related Links

Times and Time Zones

All times are in EDT time to prevent confusion due to time zone crossing. See the SKW7430 flight status page for this flight to view local times or setup timezone preferences in your user account.

Time Position Orientation Groundspeed Altitude Reporting Facility
EDT Latitude Longitude Course Direction KTS MPH feet Rate Location/Type
07:08PM 40.8014 -111.9642 29° Northeast 125 144 4,900  Level Salt Lake Center
07:08PM 40.8303 -111.9683 354° North 164 189 5,600 1,080 Climbing Salt Lake Center
07:09PM 40.8844 -111.9811 350° North 201 231 6,700 960 Climbing Salt Lake Center
07:10PM 40.8950 -111.9828 353° North 203 234 6,900 900 Climbing Salt Lake Center
07:11PM 40.9556 -111.9983 349° North 219 252 7,900 1,020 Climbing Salt Lake Center
07:12PM 41.1023 -111.8457 17° North  Level FlightAware Approximate
07:12PM 41.0211 -112.0133 350° North 235 270 9,000  Level Salt Lake Center
07:13PM 41.1785 -111.7995 29° Northeast  Level FlightAware Approximate
07:13PM 41.0875 -112.0306 349° North 239 275 10,300  Level Salt Lake Center
07:14PM 41.1497 -112.0081 15° North 245 282 11,700 1,200 Climbing Salt Lake Center
07:15PM 41.2086 -111.9944 10° North 237 273 12,800 1,140 Climbing Salt Lake Center
07:16PM 41.2700 -112.0258 339° North 237 273 14,100 1,200 Climbing Salt Lake Center
07:17PM 41.3489 -112.0539 345° North 245 282 15,400 1,140 Climbing Salt Lake Center
07:18PM 41.4167 -112.0753 347° North 248 285 16,500 960 Climbing Salt Lake Center
07:19PM 41.4844 -112.0983 346° North 251 289 17,400 780 Climbing Salt Lake Center
07:20PM 41.5542 -112.1214 346° North 258 297 18,200 900 Climbing Salt Lake Center
07:21PM 41.6242 -112.1447 346° North 259 298 19,300 960 Climbing Salt Lake Center
07:22PM 41.6922 -112.1694 345° North 254 292 20,200 780 Climbing Salt Lake Center
07:23PM 41.7594 -112.1925 346° North 249 287 21,000 720 Climbing Salt Lake Center
07:24PM 41.8261 -112.2158 345° North 245 282 21,700 420 Climbing Salt Lake Center
07:25PM 41.9106 -112.2439 346° North 258 297 21,900 -600 Climbing Salt Lake Center
07:26PM 41.9903 -112.2733 345° North 292 336 20,500 -1,500 Descending Salt Lake Center
07:27PM 42.0750 -112.3014 346° North 312 359 18,900 -1,500 Descending Salt Lake Center
07:28PM 42.1586 -112.3311 345° North 311 358 17,500 -1,440 Descending Salt Lake Center
07:29PM 42.2411 -112.3581 346° North 308 354 16,000 -1,500 Descending Salt Lake Center
07:30PM 42.3219 -112.3836 347° North 300 345 14,500 -1,500 Descending Salt Lake Center
07:31PM 42.3994 -112.4119 345° North 293 337 13,000 -1,260 Descending Salt Lake Center
07:32PM 42.4750 -112.4403 345° North 285 328 12,000 -900 Descending Salt Lake Center
07:33PM 42.5661 -112.4753 344° North 283 326 11,200 -900 Descending Salt Lake Center
07:34PM 42.6372 -112.5039 344° North 280 322 10,200 -1,080 Descending Salt Lake Center
07:35PM 42.7181 -112.5456 339° North 278 320 9,000 -1,200 Descending Salt Lake Center